Indian Creek, Florida
Current Conditions -  °F | °C
As of 12:53 AM on Wednesday 22 Oct 2014 (Local Time) from KOPF Reporting Station
Broken Clouds Broken Clouds  
Wind Chill: 24°   Ceiling: 11000
Heat Index: 24°   Visibility: 10mi
Dew Point: 21°   Wind: 3mph
Humidity: 84%   Direction: 320°NW
Pressure: 29.95"   Gusts: NA
Location:  25.882°N, 80.1292°W
Report Text: KOPF 220453Z AUTO 32003KT 10SM BKN110 24/21 A2995 RMK AO2 SLP142 T02390211 402670233
Loading
Personal Weather Stations






























Interactive Weather Map
Tropical Storm Tracking
New forecast layout! Learn more

10-Day Weather Forecast

Advertisements
Track Severe Weather on mobile